createdAt,value
2023-03-04T00:00:48.180Z,13.90
2023-03-04T00:05:50.240Z,17.33
2023-03-04T00:10:52.306Z,17.63
2023-03-04T00:15:54.480Z,16.13
2023-03-04T00:20:56.498Z,18.83
2023-03-04T00:25:58.620Z,16.15
2023-03-04T00:31:00.902Z,13.77
2023-03-04T00:36:04.073Z,13.32
2023-03-04T00:41:06.196Z,19.15
2023-03-04T00:46:09.226Z,12.95
2023-03-04T00:51:11.430Z,15.88
2023-03-04T00:56:13.791Z,15.20
2023-03-04T01:01:15.994Z,13.90
2023-03-04T01:06:18.149Z,16.27
2023-03-04T01:11:20.230Z,19.13
2023-03-04T01:16:22.477Z,13.50
2023-03-04T01:21:24.585Z,14.75
2023-03-04T01:26:27.082Z,14.38
2023-03-04T01:31:29.103Z,14.43
2023-03-04T01:36:31.206Z,13.60
2023-03-04T01:41:33.400Z,16.60
2023-03-04T01:46:35.588Z,14.40
2023-03-04T01:51:37.689Z,16.90
2023-03-04T01:56:40.856Z,15.00
2023-03-04T02:01:54.649Z,11.15
2023-03-04T02:06:58.366Z,13.65
2023-03-04T02:12:02.070Z,15.50
2023-03-04T02:17:06.622Z,13.13
2023-03-04T02:22:09.498Z,16.50
2023-03-04T02:27:11.946Z,22.00
2023-03-04T02:32:14.856Z,15.70
2023-03-04T02:37:19.394Z,17.98
2023-03-04T02:42:21.624Z,15.50
2023-03-04T02:47:23.822Z,15.93
2023-03-04T02:52:26.964Z,16.08
2023-03-04T02:57:29.099Z,15.20
2023-03-04T03:02:31.330Z,15.48
2023-03-04T03:07:35.154Z,15.02
2023-03-04T03:12:37.690Z,19.92
2023-03-04T03:17:40.627Z,16.10
2023-03-04T03:22:43.288Z,19.77
2023-03-04T03:27:45.360Z,20.67
2023-03-04T03:32:48.755Z,15.07
2023-03-04T03:37:50.964Z,15.93
2023-03-04T03:42:53.086Z,13.80
2023-03-04T03:47:55.228Z,22.95
2023-03-04T03:52:57.537Z,16.05
2023-03-04T03:57:59.692Z,14.73
2023-03-04T04:03:02.264Z,15.73
2023-03-04T04:08:05.230Z,15.77
2023-03-04T04:13:07.337Z,14.75
2023-03-04T04:18:09.966Z,18.13
2023-03-04T04:23:12.019Z,17.30
2023-03-04T04:28:14.107Z,17.90
2023-03-04T04:33:16.559Z,16.77
2023-03-04T04:38:18.773Z,18.27
2023-03-04T04:43:20.780Z,14.05
2023-03-04T04:48:22.764Z,21.00
2023-03-04T04:53:24.889Z,14.55
2023-03-04T04:58:27.004Z,17.02
2023-03-04T05:03:29.058Z,20.40
2023-03-04T05:08:31.829Z,20.23
2023-03-04T05:13:34.804Z,20.25
2023-03-04T05:18:37.107Z,13.52
2023-03-04T05:23:41.460Z,16.58
2023-03-04T05:28:44.191Z,14.02
2023-03-04T05:33:46.288Z,16.75
2023-03-04T05:38:48.501Z,13.18
2023-03-04T05:43:51.141Z,12.50
2023-03-04T05:48:54.625Z,15.55
2023-03-04T05:53:56.733Z,18.17
2023-03-04T05:58:59.928Z,14.85
2023-03-04T06:04:02.152Z,19.40
2023-03-04T06:09:04.635Z,19.67
2023-03-04T06:14:07.215Z,17.42
2023-03-04T06:19:09.334Z,15.35
2023-03-04T06:24:11.378Z,21.45
2023-03-04T06:29:14.305Z,15.55
2023-03-04T06:34:16.382Z,18.10
2023-03-04T06:39:18.805Z,15.48
2023-03-04T06:44:20.857Z,15.77
2023-03-04T06:49:22.915Z,18.48
2023-03-04T06:54:25.101Z,23.10
2023-03-04T06:59:27.203Z,16.73
2023-03-04T07:04:29.272Z,18.65
2023-03-04T07:09:31.410Z,15.77
2023-03-04T07:14:33.481Z,18.05
2023-03-04T07:19:35.553Z,18.13
2023-03-04T07:24:37.750Z,17.50
2023-03-04T07:29:39.785Z,19.45
2023-03-04T07:34:41.906Z,17.27
2023-03-04T07:39:44.025Z,18.35
2023-03-04T07:44:46.304Z,17.13
2023-03-04T07:49:48.537Z,18.73
2023-03-04T07:54:50.767Z,23.02
2023-03-04T07:59:52.918Z,18.27
2023-03-04T08:04:54.978Z,17.48
2023-03-04T08:09:57.065Z,16.48
2023-03-04T08:14:59.163Z,18.42
2023-03-04T08:20:01.209Z,16.60
2023-03-04T08:25:03.409Z,19.02
2023-03-04T08:30:06.265Z,20.85
2023-03-04T08:35:08.324Z,17.38
2023-03-04T08:40:11.303Z,18.38
2023-03-04T08:45:13.434Z,15.20
2023-03-04T08:50:15.450Z,16.83
2023-03-04T08:55:17.655Z,19.63
2023-03-04T09:00:21.377Z,19.40
2023-03-04T09:05:23.422Z,14.75
2023-03-04T09:10:25.808Z,17.25
2023-03-04T09:15:28.106Z,18.00
2023-03-04T09:20:30.698Z,18.38
2023-03-04T09:25:33.468Z,22.42
2023-03-04T09:30:35.856Z,18.75
2023-03-04T09:35:38.303Z,19.33
2023-03-04T09:40:44.237Z,18.73
2023-03-04T09:45:57.548Z,20.25
2023-03-04T09:51:20.317Z,17.85
2023-03-04T09:56:23.156Z,16.25
2023-03-04T10:01:40.475Z,18.52
2023-03-04T10:06:44.050Z,17.48
2023-03-04T10:11:52.750Z,16.73
2023-03-04T10:17:06.313Z,16.80
2023-03-04T10:22:21.122Z,20.17
2023-03-04T10:27:24.994Z,15.15
2023-03-04T10:32:27.010Z,20.73
2023-03-04T10:37:49.177Z,17.83
2023-03-04T10:42:52.620Z,18.00
2023-03-04T10:47:56.555Z,19.75
2023-03-04T10:52:58.824Z,18.55
2023-03-04T10:58:06.536Z,13.75
2023-03-04T11:03:30.022Z,18.17
2023-03-04T11:08:32.341Z,12.30
2023-03-04T11:13:35.026Z,17.83
2023-03-04T11:18:47.628Z,18.50
2023-03-04T11:23:52.485Z,19.70
2023-03-04T11:28:57.217Z,12.63
2023-03-04T11:34:13.644Z,15.30
2023-03-04T11:39:36.111Z,15.90
2023-03-04T11:49:46.378Z,14.32
2023-03-04T11:55:22.738Z,16.13
2023-03-04T12:01:00.297Z,16.95
2023-03-04T12:06:27.043Z,16.80
2023-03-04T12:11:50.506Z,15.88
2023-03-04T12:17:20.362Z,18.02
2023-03-04T12:22:43.248Z,16.35
2023-03-04T12:28:06.905Z,15.88
2023-03-04T12:33:41.965Z,15.27
2023-03-04T12:39:00.775Z,18.63
2023-03-04T12:44:13.172Z,19.95
2023-03-04T12:49:36.438Z,14.93
2023-03-04T12:54:43.600Z,14.63
2023-03-04T13:00:16.859Z,16.88
2023-03-04T13:05:40.465Z,14.60
2023-03-04T13:10:42.572Z,14.25
2023-03-04T13:15:44.679Z,15.40
2023-03-04T13:20:46.949Z,12.48
2023-03-04T13:26:08.788Z,15.13
2023-03-04T13:38:37.654Z,13.48
2023-03-04T13:57:31.817Z,14.82
2023-03-04T14:02:45.045Z,14.50
2023-03-04T15:17:09.225Z,10.50
2023-03-04T15:23:05.278Z,14.68
2023-03-04T16:50:05.317Z,12.98
2023-03-04T16:55:57.337Z,15.10
2023-03-04T17:28:41.593Z,9.65
2023-03-04T17:40:59.831Z,11.57
2023-03-04T19:17:17.222Z,8.98
2023-03-04T21:46:41.133Z,5.38
2023-03-04T22:06:11.683Z,6.45
2023-03-04T22:51:34.614Z,6.22
2023-03-04T22:57:13.904Z,5.22
2023-03-04T23:03:37.412Z,6.80
2023-03-04T23:15:30.162Z,5.28
2023-03-04T23:34:38.396Z,5.65
2023-03-04T23:40:29.112Z,6.07
2023-03-04T23:46:08.532Z,5.55
2023-03-04T23:51:47.434Z,4.40
